Terminal Aerodrome Forecast
Issued by NWS

Home | Current Version | Previous Version | Text Only | Print | Product List | Glossary On
Versions: 1 2 3 4 5 6 7 8 9 10 11 12 13
000
FTUS42 KTAE 290945 AAA
TAFABY
TAF AMD
KABY 290945Z 2910/3006 VRB03KT P6SM -SHRA BKN080 OVC250
     FM291400 08005KT P6SM SCT020 BKN080
     FM291800 07007KT P6SM SHRA VCTS BKN030CB
      TEMPO 2919/2923 1SM +TSRA=

USA.gov is the U.S. government's official web portal to all federal, state and local government web resources and services.